sensor_id;sensor_type;location;lat;lon;timestamp;temperature;humidity
17992;DHT22;9121;50.926;5.340;2023-06-24T00:00:25;22.90;99.90
17992;DHT22;9121;50.926;5.340;2023-06-24T00:02:52;22.90;99.90
17992;DHT22;9121;50.926;5.340;2023-06-24T00:05:19;22.90;99.90
17992;DHT22;9121;50.926;5.340;2023-06-24T00:07:47;22.80;99.90
17992;DHT22;9121;50.926;5.340;2023-06-24T00:10:15;22.70;99.90
17992;DHT22;9121;50.926;5.340;2023-06-24T00:12:43;22.50;99.90
17992;DHT22;9121;50.926;5.340;2023-06-24T00:15:11;22.40;99.90
17992;DHT22;9121;50.926;5.340;2023-06-24T00:17:38;22.60;99.90
17992;DHT22;9121;50.926;5.340;2023-06-24T00:20:06;22.60;99.90
17992;DHT22;9121;50.926;5.340;2023-06-24T00:22:35;22.60;99.90
17992;DHT22;9121;50.926;5.340;2023-06-24T00:25:02;22.50;99.90
17992;DHT22;9121;50.926;5.340;2023-06-24T00:27:30;22.50;99.90
17992;DHT22;9121;50.926;5.340;2023-06-24T00:29:59;22.50;99.90
17992;DHT22;9121;50.926;5.340;2023-06-24T00:32:26;22.50;99.90
17992;DHT22;9121;50.926;5.340;2023-06-24T00:34:53;22.50;99.90
17992;DHT22;9121;50.926;5.340;2023-06-24T00:37:23;22.50;99.90
17992;DHT22;9121;50.926;5.340;2023-06-24T00:39:50;22.50;99.90
17992;DHT22;9121;50.926;5.340;2023-06-24T00:42:17;22.50;99.90
17992;DHT22;9121;50.926;5.340;2023-06-24T00:44:44;22.40;99.90
17992;DHT22;9121;50.926;5.340;2023-06-24T00:47:12;22.50;99.90
17992;DHT22;9121;50.926;5.340;2023-06-24T00:49:40;22.40;99.90
17992;DHT22;9121;50.926;5.340;2023-06-24T00:52:11;22.30;99.90
17992;DHT22;9121;50.926;5.340;2023-06-24T00:54:41;22.20;99.90
17992;DHT22;9121;50.926;5.340;2023-06-24T00:57:08;22.10;99.90
17992;DHT22;9121;50.926;5.340;2023-06-24T00:59:36;22.10;99.90
17992;DHT22;9121;50.926;5.340;2023-06-24T01:02:04;22.20;99.90
17992;DHT22;9121;50.926;5.340;2023-06-24T01:04:33;22.20;99.90
17992;DHT22;9121;50.926;5.340;2023-06-24T01:07:00;22.10;99.90
17992;DHT22;9121;50.926;5.340;2023-06-24T01:09:28;21.90;99.90
17992;DHT22;9121;50.926;5.340;2023-06-24T01:11:55;21.80;99.90
17992;DHT22;9121;50.926;5.340;2023-06-24T01:14:22;21.90;99.90
17992;DHT22;9121;50.926;5.340;2023-06-24T01:16:55;22.00;99.90
17992;DHT22;9121;50.926;5.340;2023-06-24T01:19:56;22.00;99.90
17992;DHT22;9121;50.926;5.340;2023-06-24T01:22:48;21.80;99.90
17992;DHT22;9121;50.926;5.340;2023-06-24T01:25:34;21.70;99.90
17992;DHT22;9121;50.926;5.340;2023-06-24T01:28:23;21.60;99.90
17992;DHT22;9121;50.926;5.340;2023-06-24T01:31:25;21.70;99.90
17992;DHT22;9121;50.926;5.340;2023-06-24T01:33:58;21.80;99.90
17992;DHT22;9121;50.926;5.340;2023-06-24T01:36:28;21.70;99.90
17992;DHT22;9121;50.926;5.340;2023-06-24T01:39:01;21.70;99.90
17992;DHT22;9121;50.926;5.340;2023-06-24T01:41:34;21.60;99.90
17992;DHT22;9121;50.926;5.340;2023-06-24T01:44:03;21.50;99.90
17992;DHT22;9121;50.926;5.340;2023-06-24T01:46:31;21.30;99.90
17992;DHT22;9121;50.926;5.340;2023-06-24T01:49:01;21.30;99.90
17992;DHT22;9121;50.926;5.340;2023-06-24T01:51:31;21.30;99.90
17992;DHT22;9121;50.926;5.340;2023-06-24T01:54:02;21.10;99.90
17992;DHT22;9121;50.926;5.340;2023-06-24T01:56:30;21.10;99.90
17992;DHT22;9121;50.926;5.340;2023-06-24T01:59:00;21.10;99.90
17992;DHT22;9121;50.926;5.340;2023-06-24T02:01:32;21.10;99.90
17992;DHT22;9121;50.926;5.340;2023-06-24T02:04:01;21.30;99.90
17992;DHT22;9121;50.926;5.340;2023-06-24T02:06:29;21.20;99.90
17992;DHT22;9121;50.926;5.340;2023-06-24T02:08:57;21.20;99.90
17992;DHT22;9121;50.926;5.340;2023-06-24T02:11:26;21.10;99.90
17992;DHT22;9121;50.926;5.340;2023-06-24T02:13:55;21.00;99.90
17992;DHT22;9121;50.926;5.340;2023-06-24T02:16:23;21.00;99.90
17992;DHT22;9121;50.926;5.340;2023-06-24T02:18:51;20.90;99.90
17992;DHT22;9121;50.926;5.340;2023-06-24T02:21:19;21.00;99.90
17992;DHT22;9121;50.926;5.340;2023-06-24T02:23:46;21.10;99.90
17992;DHT22;9121;50.926;5.340;2023-06-24T02:26:15;21.10;99.90
17992;DHT22;9121;50.926;5.340;2023-06-24T02:28:44;21.00;99.90
17992;DHT22;9121;50.926;5.340;2023-06-24T02:31:12;21.00;99.90
17992;DHT22;9121;50.926;5.340;2023-06-24T02:33:40;21.00;99.90
17992;DHT22;9121;50.926;5.340;2023-06-24T02:36:08;21.00;99.90
17992;DHT22;9121;50.926;5.340;2023-06-24T02:38:36;20.90;99.90
17992;DHT22;9121;50.926;5.340;2023-06-24T02:41:03;20.90;99.90
17992;DHT22;9121;50.926;5.340;2023-06-24T02:43:30;20.80;99.90
17992;DHT22;9121;50.926;5.340;2023-06-24T02:45:59;20.70;99.90
17992;DHT22;9121;50.926;5.340;2023-06-24T02:48:26;20.70;99.90
17992;DHT22;9121;50.926;5.340;2023-06-24T02:50:55;20.60;99.90
17992;DHT22;9121;50.926;5.340;2023-06-24T02:53:24;20.50;99.90
17992;DHT22;9121;50.926;5.340;2023-06-24T02:55:51;20.40;99.90
17992;DHT22;9121;50.926;5.340;2023-06-24T02:58:20;20.30;99.90
17992;DHT22;9121;50.926;5.340;2023-06-24T03:00:47;20.30;99.90
17992;DHT22;9121;50.926;5.340;2023-06-24T03:03:16;20.30;99.90
17992;DHT22;9121;50.926;5.340;2023-06-24T03:05:44;20.20;99.90
17992;DHT22;9121;50.926;5.340;2023-06-24T03:08:14;20.30;99.90
17992;DHT22;9121;50.926;5.340;2023-06-24T03:10:43;20.40;99.90
17992;DHT22;9121;50.926;5.340;2023-06-24T03:13:10;20.40;99.90
17992;DHT22;9121;50.926;5.340;2023-06-24T03:15:37;20.30;99.90
17992;DHT22;9121;50.926;5.340;2023-06-24T03:18:04;20.10;99.90
17992;DHT22;9121;50.926;5.340;2023-06-24T03:20:31;20.10;99.90
17992;DHT22;9121;50.926;5.340;2023-06-24T03:23:04;20.10;99.90
17992;DHT22;9121;50.926;5.340;2023-06-24T03:25:31;19.90;99.90
17992;DHT22;9121;50.926;5.340;2023-06-24T03:28:00;19.90;99.90
17992;DHT22;9121;50.926;5.340;2023-06-24T03:30:29;20.00;99.90
17992;DHT22;9121;50.926;5.340;2023-06-24T03:32:56;20.00;99.90
17992;DHT22;9121;50.926;5.340;2023-06-24T03:35:24;19.90;99.90
17992;DHT22;9121;50.926;5.340;2023-06-24T03:37:51;19.90;99.90
17992;DHT22;9121;50.926;5.340;2023-06-24T03:40:18;19.80;99.90
17992;DHT22;9121;50.926;5.340;2023-06-24T03:42:45;19.70;99.90
17992;DHT22;9121;50.926;5.340;2023-06-24T03:45:13;19.70;99.90
17992;DHT22;9121;50.926;5.340;2023-06-24T03:47:40;19.80;99.90
17992;DHT22;9121;50.926;5.340;2023-06-24T03:50:08;19.90;99.90
17992;DHT22;9121;50.926;5.340;2023-06-24T03:52:35;19.80;99.90
17992;DHT22;9121;50.926;5.340;2023-06-24T03:55:02;19.70;99.90
17992;DHT22;9121;50.926;5.340;2023-06-24T03:57:29;19.70;99.90
17992;DHT22;9121;50.926;5.340;2023-06-24T03:59:56;19.60;99.90
17992;DHT22;9121;50.926;5.340;2023-06-24T04:02:25;19.60;99.90
17992;DHT22;9121;50.926;5.340;2023-06-24T04:04:52;19.60;99.90
17992;DHT22;9121;50.926;5.340;2023-06-24T04:07:21;19.60;99.90
17992;DHT22;9121;50.926;5.340;2023-06-24T04:09:54;19.60;99.90
17992;DHT22;9121;50.926;5.340;2023-06-24T04:12:22;19.60;99.90
17992;DHT22;9121;50.926;5.340;2023-06-24T04:14:49;19.50;99.90
17992;DHT22;9121;50.926;5.340;2023-06-24T04:17:16;19.50;99.90
17992;DHT22;9121;50.926;5.340;2023-06-24T04:19:44;19.60;99.90
17992;DHT22;9121;50.926;5.340;2023-06-24T04:22:11;19.60;99.90
17992;DHT22;9121;50.926;5.340;2023-06-24T04:24:38;19.50;99.90
17992;DHT22;9121;50.926;5.340;2023-06-24T04:27:06;19.60;99.90
17992;DHT22;9121;50.926;5.340;2023-06-24T04:29:34;19.60;99.90
17992;DHT22;9121;50.926;5.340;2023-06-24T04:32:01;19.70;99.90
17992;DHT22;9121;50.926;5.340;2023-06-24T04:34:28;19.90;99.90
17992;DHT22;9121;50.926;5.340;2023-06-24T04:36:56;19.90;99.90
17992;DHT22;9121;50.926;5.340;2023-06-24T04:39:23;19.90;99.90
17992;DHT22;9121;50.926;5.340;2023-06-24T04:41:50;19.90;99.90
17992;DHT22;9121;50.926;5.340;2023-06-24T04:44:17;19.90;99.90
17992;DHT22;9121;50.926;5.340;2023-06-24T04:46:45;19.90;99.90
17992;DHT22;9121;50.926;5.340;2023-06-24T04:49:12;19.90;99.90
17992;DHT22;9121;50.926;5.340;2023-06-24T04:51:40;19.90;99.90
17992;DHT22;9121;50.926;5.340;2023-06-24T04:54:10;20.00;99.90
17992;DHT22;9121;50.926;5.340;2023-06-24T04:56:38;20.00;99.90
17992;DHT22;9121;50.926;5.340;2023-06-24T04:59:05;20.10;99.90
17992;DHT22;9121;50.926;5.340;2023-06-24T05:01:32;20.10;99.90
17992;DHT22;9121;50.926;5.340;2023-06-24T05:03:59;20.10;99.90
17992;DHT22;9121;50.926;5.340;2023-06-24T05:06:26;20.20;99.90
17992;DHT22;9121;50.926;5.340;2023-06-24T05:08:53;20.20;99.90
17992;DHT22;9121;50.926;5.340;2023-06-24T05:11:21;20.20;99.90
17992;DHT22;9121;50.926;5.340;2023-06-24T05:13:48;20.20;99.90
17992;DHT22;9121;50.926;5.340;2023-06-24T05:16:15;20.10;99.90
17992;DHT22;9121;50.926;5.340;2023-06-24T05:18:44;20.10;99.90
17992;DHT22;9121;50.926;5.340;2023-06-24T05:21:11;20.20;99.90
17992;DHT22;9121;50.926;5.340;2023-06-24T05:23:38;20.30;99.90
17992;DHT22;9121;50.926;5.340;2023-06-24T05:26:05;20.30;99.90
17992;DHT22;9121;50.926;5.340;2023-06-24T05:28:33;20.30;99.90
17992;DHT22;9121;50.926;5.340;2023-06-24T05:31:00;20.40;99.90
17992;DHT22;9121;50.926;5.340;2023-06-24T05:33:27;20.50;99.90
17992;DHT22;9121;50.926;5.340;2023-06-24T05:35:54;20.60;99.90
17992;DHT22;9121;50.926;5.340;2023-06-24T05:38:21;20.50;99.90
17992;DHT22;9121;50.926;5.340;2023-06-24T05:40:48;20.60;99.90
17992;DHT22;9121;50.926;5.340;2023-06-24T05:43:15;20.70;99.90
17992;DHT22;9121;50.926;5.340;2023-06-24T05:45:43;20.70;99.90
17992;DHT22;9121;50.926;5.340;2023-06-24T05:48:10;20.70;99.90
17992;DHT22;9121;50.926;5.340;2023-06-24T05:50:37;20.70;99.90
17992;DHT22;9121;50.926;5.340;2023-06-24T05:53:04;20.60;99.90
17992;DHT22;9121;50.926;5.340;2023-06-24T05:55:31;20.60;99.90
17992;DHT22;9121;50.926;5.340;2023-06-24T05:57:58;20.70;99.90
17992;DHT22;9121;50.926;5.340;2023-06-24T06:00:25;20.80;99.90
17992;DHT22;9121;50.926;5.340;2023-06-24T06:02:54;20.90;99.90
17992;DHT22;9121;50.926;5.340;2023-06-24T06:05:21;20.90;99.90
17992;DHT22;9121;50.926;5.340;2023-06-24T06:07:48;21.00;99.90
17992;DHT22;9121;50.926;5.340;2023-06-24T06:10:15;21.00;99.90
17992;DHT22;9121;50.926;5.340;2023-06-24T06:12:43;21.10;99.90
17992;DHT22;9121;50.926;5.340;2023-06-24T06:15:10;21.30;99.90
17992;DHT22;9121;50.926;5.340;2023-06-24T06:17:37;21.30;99.90
17992;DHT22;9121;50.926;5.340;2023-06-24T06:20:07;21.40;99.90
17992;DHT22;9121;50.926;5.340;2023-06-24T06:22:34;21.40;99.90
17992;DHT22;9121;50.926;5.340;2023-06-24T06:25:04;21.50;99.90
17992;DHT22;9121;50.926;5.340;2023-06-24T06:27:31;21.50;99.90
17992;DHT22;9121;50.926;5.340;2023-06-24T06:29:58;21.50;99.90
17992;DHT22;9121;50.926;5.340;2023-06-24T06:32:25;21.50;99.90
17992;DHT22;9121;50.926;5.340;2023-06-24T06:34:52;21.50;99.90
17992;DHT22;9121;50.926;5.340;2023-06-24T06:37:21;21.60;99.90
17992;DHT22;9121;50.926;5.340;2023-06-24T06:39:48;21.70;99.90
17992;DHT22;9121;50.926;5.340;2023-06-24T06:42:16;21.80;99.90
17992;DHT22;9121;50.926;5.340;2023-06-24T06:44:43;21.80;99.90
17992;DHT22;9121;50.926;5.340;2023-06-24T06:47:10;21.90;99.90
17992;DHT22;9121;50.926;5.340;2023-06-24T06:49:37;21.90;99.90
17992;DHT22;9121;50.926;5.340;2023-06-24T06:52:06;21.90;99.90
17992;DHT22;9121;50.926;5.340;2023-06-24T06:54:34;22.00;99.90
17992;DHT22;9121;50.926;5.340;2023-06-24T06:57:01;22.10;99.90
17992;DHT22;9121;50.926;5.340;2023-06-24T06:59:29;22.20;99.90
17992;DHT22;9121;50.926;5.340;2023-06-24T07:01:56;22.20;99.90
17992;DHT22;9121;50.926;5.340;2023-06-24T07:04:23;22.30;99.90
17992;DHT22;9121;50.926;5.340;2023-06-24T07:06:50;22.40;99.90
17992;DHT22;9121;50.926;5.340;2023-06-24T07:09:18;22.30;99.90
17992;DHT22;9121;50.926;5.340;2023-06-24T07:11:46;22.30;99.90
17992;DHT22;9121;50.926;5.340;2023-06-24T07:14:13;22.40;99.90
17992;DHT22;9121;50.926;5.340;2023-06-24T07:16:40;22.50;99.90
17992;DHT22;9121;50.926;5.340;2023-06-24T07:19:07;22.60;99.90
17992;DHT22;9121;50.926;5.340;2023-06-24T07:21:34;22.70;99.90
17992;DHT22;9121;50.926;5.340;2023-06-24T07:24:01;22.80;99.90
17992;DHT22;9121;50.926;5.340;2023-06-24T07:26:28;22.70;99.90
17992;DHT22;9121;50.926;5.340;2023-06-24T07:28:58;22.70;99.90
17992;DHT22;9121;50.926;5.340;2023-06-24T07:31:25;22.80;99.90
17992;DHT22;9121;50.926;5.340;2023-06-24T07:33:52;22.80;99.90
17992;DHT22;9121;50.926;5.340;2023-06-24T07:36:19;22.80;99.90
17992;DHT22;9121;50.926;5.340;2023-06-24T07:38:46;23.00;99.90
17992;DHT22;9121;50.926;5.340;2023-06-24T07:41:13;23.10;99.90
17992;DHT22;9121;50.926;5.340;2023-06-24T07:43:40;23.20;99.90
17992;DHT22;9121;50.926;5.340;2023-06-24T07:46:08;23.30;99.90
17992;DHT22;9121;50.926;5.340;2023-06-24T07:48:35;23.30;99.90
17992;DHT22;9121;50.926;5.340;2023-06-24T07:51:02;23.40;99.90
17992;DHT22;9121;50.926;5.340;2023-06-24T07:53:29;23.30;99.90
17992;DHT22;9121;50.926;5.340;2023-06-24T07:55:56;23.30;99.90
17992;DHT22;9121;50.926;5.340;2023-06-24T07:58:23;23.40;99.90
17992;DHT22;9121;50.926;5.340;2023-06-24T08:00:50;23.60;99.90
17992;DHT22;9121;50.926;5.340;2023-06-24T08:03:18;23.50;99.90
17992;DHT22;9121;50.926;5.340;2023-06-24T08:05:45;23.60;99.90
17992;DHT22;9121;50.926;5.340;2023-06-24T08:08:12;23.40;99.90
17992;DHT22;9121;50.926;5.340;2023-06-24T08:10:39;23.60;99.90
17992;DHT22;9121;50.926;5.340;2023-06-24T08:13:06;23.80;99.90
17992;DHT22;9121;50.926;5.340;2023-06-24T08:15:33;23.80;99.90
17992;DHT22;9121;50.926;5.340;2023-06-24T08:18:00;23.80;99.90
17992;DHT22;9121;50.926;5.340;2023-06-24T08:20:28;23.90;99.90
17992;DHT22;9121;50.926;5.340;2023-06-24T08:22:55;23.90;99.90
17992;DHT22;9121;50.926;5.340;2023-06-24T08:25:22;23.80;99.90
17992;DHT22;9121;50.926;5.340;2023-06-24T08:27:49;24.00;99.90
17992;DHT22;9121;50.926;5.340;2023-06-24T08:30:16;24.10;99.90
17992;DHT22;9121;50.926;5.340;2023-06-24T08:32:43;24.10;99.90
17992;DHT22;9121;50.926;5.340;2023-06-24T08:35:11;24.20;99.90
17992;DHT22;9121;50.926;5.340;2023-06-24T08:37:39;24.20;99.90
17992;DHT22;9121;50.926;5.340;2023-06-24T08:40:07;24.20;99.90
17992;DHT22;9121;50.926;5.340;2023-06-24T08:42:35;24.20;99.90
17992;DHT22;9121;50.926;5.340;2023-06-24T08:45:02;24.30;99.90
17992;DHT22;9121;50.926;5.340;2023-06-24T08:47:29;24.40;99.90
17992;DHT22;9121;50.926;5.340;2023-06-24T08:50:04;24.50;99.90
17992;DHT22;9121;50.926;5.340;2023-06-24T08:52:34;24.40;99.90
17992;DHT22;9121;50.926;5.340;2023-06-24T08:55:04;24.30;99.90
17992;DHT22;9121;50.926;5.340;2023-06-24T08:57:33;24.40;99.90
17992;DHT22;9121;50.926;5.340;2023-06-24T09:00:00;24.60;99.90
17992;DHT22;9121;50.926;5.340;2023-06-24T09:02:29;24.70;99.90
17992;DHT22;9121;50.926;5.340;2023-06-24T09:04:58;24.80;99.90
17992;DHT22;9121;50.926;5.340;2023-06-24T09:07:28;24.90;99.90
17992;DHT22;9121;50.926;5.340;2023-06-24T09:09:55;25.10;99.90
17992;DHT22;9121;50.926;5.340;2023-06-24T09:12:24;25.10;99.90
17992;DHT22;9121;50.926;5.340;2023-06-24T09:14:51;25.10;99.90
17992;DHT22;9121;50.926;5.340;2023-06-24T09:17:19;24.90;99.90
17992;DHT22;9121;50.926;5.340;2023-06-24T09:19:48;24.80;99.90
17992;DHT22;9121;50.926;5.340;2023-06-24T09:22:15;24.70;99.90
17992;DHT22;9121;50.926;5.340;2023-06-24T09:24:44;24.50;99.90
17992;DHT22;9121;50.926;5.340;2023-06-24T09:27:13;24.60;99.90
17992;DHT22;9121;50.926;5.340;2023-06-24T09:29:42;24.70;99.90
17992;DHT22;9121;50.926;5.340;2023-06-24T09:32:10;24.80;99.90
17992;DHT22;9121;50.926;5.340;2023-06-24T09:34:37;24.70;99.90
17992;DHT22;9121;50.926;5.340;2023-06-24T09:37:04;24.90;99.90
17992;DHT22;9121;50.926;5.340;2023-06-24T09:39:36;25.00;99.80
17992;DHT22;9121;50.926;5.340;2023-06-24T09:42:05;25.10;99.10
17992;DHT22;9121;50.926;5.340;2023-06-24T09:44:33;25.20;99.60
17992;DHT22;9121;50.926;5.340;2023-06-24T09:47:02;25.20;99.90
17992;DHT22;9121;50.926;5.340;2023-06-24T09:49:29;25.30;99.90
17992;DHT22;9121;50.926;5.340;2023-06-24T09:51:57;25.30;99.80
17992;DHT22;9121;50.926;5.340;2023-06-24T09:54:26;25.30;99.30
17992;DHT22;9121;50.926;5.340;2023-06-24T09:56:54;25.40;98.30
17992;DHT22;9121;50.926;5.340;2023-06-24T09:59:25;25.30;96.60
17992;DHT22;9121;50.926;5.340;2023-06-24T10:01:54;25.30;95.80
17992;DHT22;9121;50.926;5.340;2023-06-24T10:04:23;25.20;97.90
17992;DHT22;9121;50.926;5.340;2023-06-24T10:06:50;25.20;98.60
17992;DHT22;9121;50.926;5.340;2023-06-24T10:09:17;25.30;97.60
17992;DHT22;9121;50.926;5.340;2023-06-24T10:11:45;25.40;95.80
17992;DHT22;9121;50.926;5.340;2023-06-24T10:14:13;25.40;96.10
17992;DHT22;9121;50.926;5.340;2023-06-24T10:16:41;25.50;95.70
17992;DHT22;9121;50.926;5.340;2023-06-24T10:19:08;25.70;96.30
17992;DHT22;9121;50.926;5.340;2023-06-24T10:21:46;25.70;96.50
17992;DHT22;9121;50.926;5.340;2023-06-24T10:24:28;25.70;97.10
17992;DHT22;9121;50.926;5.340;2023-06-24T10:26:55;25.80;97.30
17992;DHT22;9121;50.926;5.340;2023-06-24T10:29:31;25.80;97.20
17992;DHT22;9121;50.926;5.340;2023-06-24T10:32:02;25.80;96.80
17992;DHT22;9121;50.926;5.340;2023-06-24T10:34:33;25.90;97.50
17992;DHT22;9121;50.926;5.340;2023-06-24T10:37:02;26.00;97.80
17992;DHT22;9121;50.926;5.340;2023-06-24T10:39:37;25.90;97.70
17992;DHT22;9121;50.926;5.340;2023-06-24T10:42:29;26.00;98.30
17992;DHT22;9121;50.926;5.340;2023-06-24T10:44:57;26.20;98.10
17992;DHT22;9121;50.926;5.340;2023-06-24T10:47:25;26.40;96.50
17992;DHT22;9121;50.926;5.340;2023-06-24T10:49:53;26.40;96.40
17992;DHT22;9121;50.926;5.340;2023-06-24T10:52:22;26.40;95.80
17992;DHT22;9121;50.926;5.340;2023-06-24T10:54:50;26.30;95.00
17992;DHT22;9121;50.926;5.340;2023-06-24T10:57:21;26.40;94.90
17992;DHT22;9121;50.926;5.340;2023-06-24T10:59:49;26.50;95.10
17992;DHT22;9121;50.926;5.340;2023-06-24T11:02:17;26.50;94.30
17992;DHT22;9121;50.926;5.340;2023-06-24T11:04:45;26.60;94.60
17992;DHT22;9121;50.926;5.340;2023-06-24T11:07:12;26.80;96.00
17992;DHT22;9121;50.926;5.340;2023-06-24T11:09:41;26.80;96.10
17992;DHT22;9121;50.926;5.340;2023-06-24T11:12:09;26.90;95.40
17992;DHT22;9121;50.926;5.340;2023-06-24T11:14:38;27.10;94.40
17992;DHT22;9121;50.926;5.340;2023-06-24T11:17:05;27.20;93.70
17992;DHT22;9121;50.926;5.340;2023-06-24T11:19:32;27.20;93.80
17992;DHT22;9121;50.926;5.340;2023-06-24T11:22:01;27.10;94.30
17992;DHT22;9121;50.926;5.340;2023-06-24T11:24:29;27.20;94.00
17992;DHT22;9121;50.926;5.340;2023-06-24T11:26:57;27.30;94.20
17992;DHT22;9121;50.926;5.340;2023-06-24T11:29:25;27.30;93.60
17992;DHT22;9121;50.926;5.340;2023-06-24T11:31:55;27.50;93.20
17992;DHT22;9121;50.926;5.340;2023-06-24T11:34:22;27.60;92.30
17992;DHT22;9121;50.926;5.340;2023-06-24T11:36:49;27.60;93.30
17992;DHT22;9121;50.926;5.340;2023-06-24T11:39:23;27.60;92.90
17992;DHT22;9121;50.926;5.340;2023-06-24T11:41:51;27.60;92.90
17992;DHT22;9121;50.926;5.340;2023-06-24T11:44:21;27.80;93.80
17992;DHT22;9121;50.926;5.340;2023-06-24T11:46:48;27.80;94.30
17992;DHT22;9121;50.926;5.340;2023-06-24T11:49:15;27.90;93.20
17992;DHT22;9121;50.926;5.340;2023-06-24T11:51:47;27.90;92.40
17992;DHT22;9121;50.926;5.340;2023-06-24T11:54:16;28.00;92.80
17992;DHT22;9121;50.926;5.340;2023-06-24T11:56:49;28.00;92.70
17992;DHT22;9121;50.926;5.340;2023-06-24T11:59:18;28.10;92.80
17992;DHT22;9121;50.926;5.340;2023-06-24T12:01:52;28.10;92.20
17992;DHT22;9121;50.926;5.340;2023-06-24T12:04:21;28.20;91.50
17992;DHT22;9121;50.926;5.340;2023-06-24T12:06:48;28.10;90.90
17992;DHT22;9121;50.926;5.340;2023-06-24T12:09:15;28.10;90.70
17992;DHT22;9121;50.926;5.340;2023-06-24T12:11:43;28.20;90.40
17992;DHT22;9121;50.926;5.340;2023-06-24T12:14:10;28.30;90.10
17992;DHT22;9121;50.926;5.340;2023-06-24T12:16:38;28.60;91.20
17992;DHT22;9121;50.926;5.340;2023-06-24T12:19:07;28.80;90.20
17992;DHT22;9121;50.926;5.340;2023-06-24T12:21:34;29.10;90.20
17992;DHT22;9121;50.926;5.340;2023-06-24T12:24:01;29.30;90.00
17992;DHT22;9121;50.926;5.340;2023-06-24T12:26:28;29.70;90.40
17992;DHT22;9121;50.926;5.340;2023-06-24T12:28:56;29.90;89.00
17992;DHT22;9121;50.926;5.340;2023-06-24T12:31:23;30.10;87.30
17992;DHT22;9121;50.926;5.340;2023-06-24T12:33:50;30.60;88.10
17992;DHT22;9121;50.926;5.340;2023-06-24T12:36:19;30.90;86.20
17992;DHT22;9121;50.926;5.340;2023-06-24T12:38:46;31.40;85.00
17992;DHT22;9121;50.926;5.340;2023-06-24T12:41:13;31.80;86.40
17992;DHT22;9121;50.926;5.340;2023-06-24T12:43:40;32.10;85.20
17992;DHT22;9121;50.926;5.340;2023-06-24T12:46:07;32.10;82.60
17992;DHT22;9121;50.926;5.340;2023-06-24T12:48:34;32.00;83.50
17992;DHT22;9121;50.926;5.340;2023-06-24T12:51:01;32.50;83.40
17992;DHT22;9121;50.926;5.340;2023-06-24T12:53:29;32.70;79.90
17992;DHT22;9121;50.926;5.340;2023-06-24T12:55:56;32.40;80.30
17992;DHT22;9121;50.926;5.340;2023-06-24T12:58:24;32.40;82.70
17992;DHT22;9121;50.926;5.340;2023-06-24T13:00:51;32.00;81.10
17992;DHT22;9121;50.926;5.340;2023-06-24T13:03:19;31.70;81.50
17992;DHT22;9121;50.926;5.340;2023-06-24T13:05:46;31.80;80.80
17992;DHT22;9121;50.926;5.340;2023-06-24T13:08:13;31.80;81.10
17992;DHT22;9121;50.926;5.340;2023-06-24T13:10:41;32.00;80.60
17992;DHT22;9121;50.926;5.340;2023-06-24T13:13:08;32.20;80.60
17992;DHT22;9121;50.926;5.340;2023-06-24T13:15:35;32.60;80.00
17992;DHT22;9121;50.926;5.340;2023-06-24T13:18:03;32.90;80.50
17992;DHT22;9121;50.926;5.340;2023-06-24T13:20:30;33.00;77.50
17992;DHT22;9121;50.926;5.340;2023-06-24T13:22:57;33.10;76.70
17992;DHT22;9121;50.926;5.340;2023-06-24T13:25:24;32.60;77.10
17992;DHT22;9121;50.926;5.340;2023-06-24T13:27:52;32.80;77.00
17992;DHT22;9121;50.926;5.340;2023-06-24T13:30:19;32.80;77.70
17992;DHT22;9121;50.926;5.340;2023-06-24T13:32:47;33.20;77.10
17992;DHT22;9121;50.926;5.340;2023-06-24T13:35:15;33.40;77.90
17992;DHT22;9121;50.926;5.340;2023-06-24T13:37:42;34.00;74.10
17992;DHT22;9121;50.926;5.340;2023-06-24T13:40:10;34.70;73.10
17992;DHT22;9121;50.926;5.340;2023-06-24T13:42:38;34.50;70.70
17992;DHT22;9121;50.926;5.340;2023-06-24T13:45:07;34.60;71.60
17992;DHT22;9121;50.926;5.340;2023-06-24T13:47:34;34.60;70.70
17992;DHT22;9121;50.926;5.340;2023-06-24T13:50:01;34.90;71.50
17992;DHT22;9121;50.926;5.340;2023-06-24T13:52:28;35.10;70.30
17992;DHT22;9121;50.926;5.340;2023-06-24T13:54:55;35.50;69.30
17992;DHT22;9121;50.926;5.340;2023-06-24T13:57:22;35.60;68.70
17992;DHT22;9121;50.926;5.340;2023-06-24T13:59:49;35.50;67.80
17992;DHT22;9121;50.926;5.340;2023-06-24T14:02:18;35.10;66.90
17992;DHT22;9121;50.926;5.340;2023-06-24T14:04:45;35.60;68.30
17992;DHT22;9121;50.926;5.340;2023-06-24T14:07:13;36.30;64.70
17992;DHT22;9121;50.926;5.340;2023-06-24T14:09:40;36.60;62.20
17992;DHT22;9121;50.926;5.340;2023-06-24T14:12:08;36.70;61.90
17992;DHT22;9121;50.926;5.340;2023-06-24T14:14:36;36.40;60.60
17992;DHT22;9121;50.926;5.340;2023-06-24T14:17:05;36.50;61.30
17992;DHT22;9121;50.926;5.340;2023-06-24T14:19:35;36.20;60.30
17992;DHT22;9121;50.926;5.340;2023-06-24T14:22:02;36.40;60.60
17992;DHT22;9121;50.926;5.340;2023-06-24T14:24:29;36.00;61.60
17992;DHT22;9121;50.926;5.340;2023-06-24T14:26:56;36.00;60.50
17992;DHT22;9121;50.926;5.340;2023-06-24T14:29:23;36.00;59.90
17992;DHT22;9121;50.926;5.340;2023-06-24T14:31:51;36.00;59.80
17992;DHT22;9121;50.926;5.340;2023-06-24T14:34:18;36.30;59.70
17992;DHT22;9121;50.926;5.340;2023-06-24T14:36:46;36.40;60.70
17992;DHT22;9121;50.926;5.340;2023-06-24T14:39:15;36.80;58.10
17992;DHT22;9121;50.926;5.340;2023-06-24T14:41:42;37.00;58.00
17992;DHT22;9121;50.926;5.340;2023-06-24T14:44:10;36.20;56.90
17992;DHT22;9121;50.926;5.340;2023-06-24T14:46:37;36.20;57.30
17992;DHT22;9121;50.926;5.340;2023-06-24T14:49:03;37.10;55.80
17992;DHT22;9121;50.926;5.340;2023-06-24T14:51:30;37.20;54.20
17992;DHT22;9121;50.926;5.340;2023-06-24T14:53:59;37.00;56.00
17992;DHT22;9121;50.926;5.340;2023-06-24T14:56:26;37.20;53.60
17992;DHT22;9121;50.926;5.340;2023-06-24T14:58:53;37.80;53.80
17992;DHT22;9121;50.926;5.340;2023-06-24T15:01:19;37.80;53.10
17992;DHT22;9121;50.926;5.340;2023-06-24T15:03:46;37.70;52.40
17992;DHT22;9121;50.926;5.340;2023-06-24T15:06:13;37.50;52.60
17992;DHT22;9121;50.926;5.340;2023-06-24T15:08:40;37.20;51.40
17992;DHT22;9121;50.926;5.340;2023-06-24T15:11:09;36.70;52.60
17992;DHT22;9121;50.926;5.340;2023-06-24T15:13:35;36.30;54.50
17992;DHT22;9121;50.926;5.340;2023-06-24T15:16:02;36.80;54.90
17992;DHT22;9121;50.926;5.340;2023-06-24T15:18:29;37.20;53.90
17992;DHT22;9121;50.926;5.340;2023-06-24T15:20:56;37.50;54.10
17992;DHT22;9121;50.926;5.340;2023-06-24T15:23:23;37.50;54.60
17992;DHT22;9121;50.926;5.340;2023-06-24T15:25:50;37.80;53.80
17992;DHT22;9121;50.926;5.340;2023-06-24T15:28:20;37.90;53.60
17992;DHT22;9121;50.926;5.340;2023-06-24T15:30:47;38.10;53.30
17992;DHT22;9121;50.926;5.340;2023-06-24T15:33:14;38.20;52.70
17992;DHT22;9121;50.926;5.340;2023-06-24T15:35:41;38.40;53.10
17992;DHT22;9121;50.926;5.340;2023-06-24T15:38:08;37.70;53.90
17992;DHT22;9121;50.926;5.340;2023-06-24T15:40:35;37.40;54.70
17992;DHT22;9121;50.926;5.340;2023-06-24T15:43:02;38.00;54.20
17992;DHT22;9121;50.926;5.340;2023-06-24T15:45:31;38.10;54.40
17992;DHT22;9121;50.926;5.340;2023-06-24T15:47:58;38.10;53.80
17992;DHT22;9121;50.926;5.340;2023-06-24T15:50:25;38.00;53.80